Řízení letového provozu České republiky
Letiste: LKMT Aktualizace: 16.10.2019 01:00:31  UTC
 METAR LKMT 16.10. 01:00 ...
METAR LKMT 160100Z 20015KT CAVOK 18/10 Q1008 NOSIG RMK REG QNH 1006=
 TAF LKMT 15.10. 23:00 ...
TAF LKMT 152300Z 1600/1706 21015KT CAVOK      TEMPO 1600/1615 23015G25KT      BECMG 1608/1610 9999 BKN025      TEMPO 1610/1615 6000 RA BKN016      BECMG 1618/1621 21007KT CAVOK=